createdAt,value
2019-03-04T00:00:48.714Z,8.17
2019-03-04T00:01:56.942Z,6.47
2019-03-04T00:03:02.270Z,9.57
2019-03-04T00:04:07.571Z,7.50
2019-03-04T00:05:12.795Z,6.07
2019-03-04T00:06:17.995Z,6.33
2019-03-04T00:07:24.233Z,6.73
2019-03-04T00:08:29.483Z,6.17
2019-03-04T00:09:34.756Z,7.90
2019-03-04T00:10:40.490Z,8.50
2019-03-04T00:11:45.885Z,6.00
2019-03-04T00:12:51.021Z,6.00
2019-03-04T00:13:56.318Z,6.53
2019-03-04T00:15:01.554Z,7.03
2019-03-04T00:16:07.973Z,8.93
2019-03-04T00:17:13.428Z,8.00
2019-03-04T00:18:18.726Z,5.70
2019-03-04T00:19:24.153Z,7.53
2019-03-04T00:20:29.382Z,6.83
2019-03-04T00:21:34.582Z,7.50
2019-03-04T00:22:39.888Z,9.97
2019-03-04T00:23:45.200Z,6.90
2019-03-04T00:24:50.533Z,5.20
2019-03-04T00:25:55.826Z,7.83
2019-03-04T00:27:01.565Z,9.40
2019-03-04T00:28:07.208Z,7.77
2019-03-04T00:29:12.431Z,8.97
2019-03-04T00:30:17.785Z,9.33
2019-03-04T00:31:22.977Z,5.97
2019-03-04T00:32:28.373Z,5.90
2019-03-04T00:33:33.754Z,6.60
2019-03-04T00:34:39.198Z,8.20
2019-03-04T00:35:44.430Z,7.33
2019-03-04T00:36:49.704Z,6.10
2019-03-04T00:37:54.972Z,4.67
2019-03-04T00:39:00.223Z,7.30
2019-03-04T00:40:06.271Z,7.33
2019-03-04T00:41:11.470Z,6.30
2019-03-04T00:42:16.821Z,11.53
2019-03-04T00:43:22.097Z,5.70
2019-03-04T00:44:27.405Z,6.43
2019-03-04T00:45:32.613Z,7.90
2019-03-04T00:46:37.849Z,8.77
2019-03-04T00:47:42.950Z,7.80
2019-03-04T00:48:48.206Z,7.30
2019-03-04T00:49:53.367Z,5.57
2019-03-04T00:50:58.482Z,8.47
2019-03-04T00:52:03.742Z,6.67
2019-03-04T00:53:09.160Z,7.87
2019-03-04T00:54:14.500Z,5.37
2019-03-04T00:55:19.776Z,9.70
2019-03-04T00:56:24.955Z,6.50
2019-03-04T00:57:30.193Z,5.03
2019-03-04T00:58:35.460Z,5.07
2019-03-04T00:59:40.652Z,7.57
2019-03-04T01:00:45.830Z,8.83
2019-03-04T01:01:51.072Z,6.77
2019-03-04T01:02:56.428Z,7.47
2019-03-04T01:04:02.669Z,7.87
2019-03-04T01:05:08.994Z,6.70
2019-03-04T01:06:14.239Z,5.03
2019-03-04T01:07:19.624Z,7.77
2019-03-04T01:08:24.955Z,7.43
2019-03-04T01:09:30.266Z,6.30
2019-03-04T01:10:35.505Z,5.30
2019-03-04T01:11:40.763Z,8.07
2019-03-04T01:12:46.148Z,4.37
2019-03-04T01:13:51.420Z,8.80
2019-03-04T01:14:56.678Z,10.13
2019-03-04T01:16:01.783Z,5.90
2019-03-04T01:17:06.976Z,6.73
2019-03-04T01:18:12.290Z,8.40
2019-03-04T01:19:17.620Z,7.37
2019-03-04T01:20:22.915Z,9.37
2019-03-04T01:21:28.144Z,6.07
2019-03-04T01:22:33.537Z,7.20
2019-03-04T01:23:38.787Z,7.53
2019-03-04T01:24:44.119Z,5.00
2019-03-04T01:25:49.315Z,5.93
2019-03-04T01:26:54.511Z,7.40
2019-03-04T01:27:59.709Z,5.97
2019-03-04T01:29:05.003Z,5.63
2019-03-04T01:30:13.200Z,5.17
2019-03-04T01:31:18.449Z,8.50
2019-03-04T01:32:23.730Z,6.60
2019-03-04T01:33:28.843Z,5.27
2019-03-04T01:34:34.095Z,9.00
2019-03-04T01:35:39.345Z,7.40
2019-03-04T01:36:44.662Z,6.13
2019-03-04T01:37:51.919Z,8.03
2019-03-04T01:38:57.084Z,7.43
2019-03-04T01:40:02.187Z,7.00
2019-03-04T01:41:07.522Z,6.43
2019-03-04T01:42:12.666Z,7.20
2019-03-04T01:43:17.883Z,7.47
2019-03-04T01:44:23.130Z,5.87
2019-03-04T01:45:28.409Z,5.17
2019-03-04T01:46:33.644Z,8.03
2019-03-04T01:47:38.836Z,7.03
2019-03-04T01:48:44.011Z,6.63
2019-03-04T01:49:49.202Z,8.13
2019-03-04T01:50:54.488Z,6.60
2019-03-04T01:51:59.730Z,9.83
2019-03-04T01:53:05.038Z,6.33
2019-03-04T01:54:10.196Z,9.17
2019-03-04T01:55:15.928Z,6.37
2019-03-04T01:56:21.092Z,7.73
2019-03-04T01:57:27.396Z,6.60
2019-03-04T01:58:32.649Z,8.07
2019-03-04T01:59:37.909Z,7.67
2019-03-04T02:00:43.126Z,6.57
2019-03-04T02:01:48.343Z,8.43
2019-03-04T02:02:53.518Z,6.00
2019-03-04T02:03:58.673Z,7.90
2019-03-04T02:05:03.979Z,9.40
2019-03-04T02:06:09.160Z,7.47
2019-03-04T02:07:14.355Z,8.20
2019-03-04T02:08:19.613Z,7.53
2019-03-04T02:09:25.397Z,8.67
2019-03-04T02:10:30.618Z,6.60
2019-03-04T02:11:35.910Z,6.13
2019-03-04T02:12:41.143Z,7.27
2019-03-04T02:13:46.398Z,8.47
2019-03-04T02:14:51.623Z,7.87
2019-03-04T02:15:57.028Z,5.87
2019-03-04T02:17:02.166Z,6.53
2019-03-04T02:18:07.852Z,7.43
2019-03-04T02:19:13.054Z,6.00
2019-03-04T02:20:18.788Z,7.17
2019-03-04T02:21:24.035Z,6.73
2019-03-04T02:22:29.192Z,5.77
2019-03-04T02:23:34.516Z,5.67
2019-03-04T02:24:39.685Z,6.27
2019-03-04T02:26:11.220Z,8.77
2019-03-04T02:27:16.373Z,9.00
2019-03-04T02:28:21.540Z,8.87
2019-03-04T02:29:26.632Z,7.50
2019-03-04T02:30:31.817Z,5.77
2019-03-04T02:31:37.011Z,8.07
2019-03-04T02:32:42.250Z,7.40
2019-03-04T02:33:47.410Z,9.27
2019-03-04T02:34:52.669Z,8.63
2019-03-04T02:35:57.935Z,7.97
2019-03-04T02:37:03.187Z,7.50
2019-03-04T02:38:08.364Z,5.93
2019-03-04T02:39:13.565Z,5.87
2019-03-04T02:40:18.926Z,7.30
2019-03-04T02:41:25.146Z,8.00
2019-03-04T02:42:30.447Z,6.07
2019-03-04T02:43:35.603Z,6.07
2019-03-04T02:44:40.851Z,7.27
2019-03-04T02:45:46.100Z,3.33
2019-03-04T02:46:51.365Z,5.70
2019-03-04T02:47:56.623Z,7.67
2019-03-04T02:49:01.905Z,6.77
2019-03-04T02:50:07.353Z,6.07
2019-03-04T02:51:12.548Z,6.07
2019-03-04T02:52:17.794Z,9.03
2019-03-04T02:53:23.044Z,5.20
2019-03-04T02:54:28.197Z,6.70
2019-03-04T02:55:33.482Z,3.77
2019-03-04T02:56:38.715Z,4.60
2019-03-04T02:57:43.944Z,5.93
2019-03-04T02:58:50.226Z,5.87
2019-03-04T02:59:56.530Z,5.17
2019-03-04T03:01:01.826Z,4.20
2019-03-04T03:02:08.023Z,3.33
2019-03-04T03:03:13.270Z,6.37
2019-03-04T03:04:18.471Z,6.07
2019-03-04T03:05:23.779Z,5.33
2019-03-04T03:06:29.060Z,4.03
2019-03-04T03:07:34.322Z,3.30
2019-03-04T03:08:39.557Z,4.27
2019-03-04T03:09:44.844Z,5.23
2019-03-04T03:10:50.171Z,5.63
2019-03-04T03:11:55.408Z,4.30
2019-03-04T03:13:00.566Z,5.47
2019-03-04T03:14:05.728Z,6.90
2019-03-04T03:15:11.263Z,3.57
2019-03-04T03:16:16.494Z,2.87
2019-03-04T03:17:21.723Z,5.17
2019-03-04T03:18:26.932Z,4.83
2019-03-04T03:19:32.244Z,5.40
2019-03-04T03:20:37.495Z,4.93
2019-03-04T03:21:42.707Z,4.43
2019-03-04T03:22:47.872Z,5.20
2019-03-04T03:23:53.113Z,2.83
2019-03-04T03:24:58.302Z,2.60
2019-03-04T03:26:03.574Z,5.00
2019-03-04T03:27:08.784Z,4.43
2019-03-04T03:28:13.905Z,3.30
2019-03-04T03:29:19.185Z,4.33
2019-03-04T03:30:24.448Z,4.00
2019-03-04T03:31:29.715Z,3.50
2019-03-04T03:32:34.854Z,1.97
2019-03-04T03:33:40.056Z,4.87
2019-03-04T03:34:45.303Z,2.83
2019-03-04T03:35:50.537Z,3.33
2019-03-04T03:36:55.698Z,3.90
2019-03-04T03:38:00.880Z,3.80
2019-03-04T03:39:07.088Z,5.67
2019-03-04T03:40:13.010Z,4.00
2019-03-04T03:41:18.229Z,4.43
2019-03-04T03:42:23.494Z,3.77
2019-03-04T03:43:28.817Z,4.70
2019-03-04T03:44:34.189Z,2.10
2019-03-04T03:45:39.353Z,7.67
2019-03-04T03:46:44.606Z,3.83
2019-03-04T03:47:49.803Z,5.03
2019-03-04T03:48:55.150Z,4.23
2019-03-04T03:50:00.410Z,4.07
2019-03-04T03:51:05.676Z,4.10
2019-03-04T03:52:10.904Z,5.23
2019-03-04T03:53:16.101Z,3.80
2019-03-04T03:54:21.359Z,4.80
2019-03-04T03:55:26.524Z,3.57
2019-03-04T03:56:31.795Z,4.70
2019-03-04T03:57:36.940Z,4.33
2019-03-04T03:58:42.401Z,2.10
2019-03-04T03:59:47.575Z,6.90
2019-03-04T04:00:52.850Z,3.57
2019-03-04T04:01:58.166Z,2.73
2019-03-04T04:03:03.404Z,3.20
2019-03-04T04:04:08.648Z,3.23
2019-03-04T04:05:13.957Z,2.80
2019-03-04T04:06:19.198Z,3.30
2019-03-04T04:07:24.424Z,3.00
2019-03-04T04:08:29.664Z,5.17
2019-03-04T04:09:34.911Z,1.83
2019-03-04T04:10:40.184Z,3.97
2019-03-04T04:11:45.431Z,3.67
2019-03-04T04:12:50.646Z,3.03
2019-03-04T04:13:55.853Z,2.80
2019-03-04T04:15:01.153Z,3.30
2019-03-04T04:16:06.649Z,2.40
2019-03-04T04:17:11.916Z,3.70
2019-03-04T04:18:17.554Z,1.80
2019-03-04T04:19:22.865Z,1.67
2019-03-04T04:20:28.129Z,2.83
2019-03-04T04:21:33.422Z,3.23
2019-03-04T04:22:38.597Z,3.50
2019-03-04T04:23:45.249Z,3.33
2019-03-04T04:24:50.525Z,3.60
2019-03-04T04:25:55.777Z,2.23
2019-03-04T04:27:00.965Z,2.20
2019-03-04T04:28:08.747Z,3.83
2019-03-04T04:29:14.126Z,4.40
2019-03-04T04:30:20.671Z,4.60
2019-03-04T04:31:26.037Z,4.13
2019-03-04T04:32:31.263Z,2.90
2019-03-04T04:33:36.538Z,4.17
2019-03-04T04:34:41.692Z,1.97
2019-03-04T04:35:46.938Z,2.07
2019-03-04T04:36:52.046Z,2.00
2019-03-04T04:37:57.210Z,3.07
2019-03-04T04:39:02.456Z,3.27
2019-03-04T04:40:09.469Z,4.97
2019-03-04T04:41:14.718Z,4.17
2019-03-04T04:42:19.848Z,2.60
2019-03-04T04:43:25.161Z,2.13
2019-03-04T04:44:30.432Z,2.07
2019-03-04T04:45:35.625Z,3.33
2019-03-04T04:47:10.251Z,4.00
2019-03-04T04:48:15.468Z,2.67
2019-03-04T04:49:20.652Z,3.10
2019-03-04T04:50:26.417Z,4.10
2019-03-04T04:51:31.566Z,2.03
2019-03-04T04:52:36.817Z,2.90
2019-03-04T04:53:41.976Z,2.53
2019-03-04T04:54:47.143Z,3.77
2019-03-04T04:55:52.418Z,5.60
2019-03-04T04:56:57.684Z,3.63
2019-03-04T04:58:02.929Z,3.60
2019-03-04T04:59:08.044Z,4.43
2019-03-04T05:00:14.126Z,4.57
2019-03-04T05:01:19.314Z,9.50
2019-03-04T05:02:24.625Z,3.13
2019-03-04T05:03:29.887Z,2.23
2019-03-04T05:04:35.027Z,3.73
2019-03-04T05:05:40.288Z,3.73
2019-03-04T05:06:45.421Z,5.17
2019-03-04T05:07:50.643Z,4.47
2019-03-04T05:08:55.810Z,4.63
2019-03-04T05:10:01.082Z,4.23
2019-03-04T05:11:06.662Z,3.53
2019-03-04T05:12:11.870Z,3.13
2019-03-04T05:13:17.167Z,2.40
2019-03-04T05:14:22.516Z,2.30
2019-03-04T05:15:27.714Z,4.77
2019-03-04T05:16:32.998Z,3.57
2019-03-04T05:17:39.840Z,3.00
2019-03-04T05:18:45.204Z,4.40
2019-03-04T05:19:50.372Z,3.47
2019-03-04T05:20:55.620Z,3.13
2019-03-04T05:22:00.955Z,3.27
2019-03-04T05:23:06.245Z,4.60
2019-03-04T05:24:12.336Z,3.80
2019-03-04T05:25:17.522Z,2.33
2019-03-04T05:26:22.810Z,7.10
2019-03-04T05:27:28.040Z,9.63
2019-03-04T05:28:33.265Z,3.23
2019-03-04T05:29:39.574Z,3.60
2019-03-04T05:30:44.779Z,2.70
2019-03-04T05:31:50.000Z,4.10
2019-03-04T05:32:55.189Z,4.53
2019-03-04T05:34:00.451Z,5.30
2019-03-04T05:35:05.935Z,4.53
2019-03-04T05:36:11.131Z,7.90
2019-03-04T05:37:16.386Z,4.07
2019-03-04T05:38:21.603Z,4.60
2019-03-04T05:39:26.834Z,4.63
2019-03-04T05:40:32.075Z,6.20
2019-03-04T05:41:37.306Z,3.10
2019-03-04T05:42:42.647Z,6.27
2019-03-04T05:43:47.826Z,4.90
2019-03-04T05:44:53.103Z,6.53
2019-03-04T05:45:58.364Z,3.90
2019-03-04T05:47:03.672Z,5.93
2019-03-04T05:48:08.951Z,4.93
2019-03-04T05:49:14.215Z,11.30
2019-03-04T05:50:19.490Z,7.47
2019-03-04T05:51:24.677Z,5.73
2019-03-04T05:52:29.983Z,5.43
2019-03-04T05:53:35.276Z,3.40
2019-03-04T05:54:40.534Z,5.53
2019-03-04T05:55:45.797Z,9.70
2019-03-04T05:56:51.011Z,3.37
2019-03-04T05:57:56.199Z,6.60
2019-03-04T05:59:01.491Z,4.33
2019-03-04T06:00:11.866Z,8.20
2019-03-04T06:01:22.405Z,3.67
2019-03-04T06:02:27.619Z,8.37
2019-03-04T06:03:32.854Z,6.07
2019-03-04T06:04:38.948Z,4.67
2019-03-04T06:05:44.295Z,4.67
2019-03-04T06:06:52.898Z,6.20
2019-03-04T06:08:01.114Z,6.47
2019-03-04T06:09:08.512Z,4.67
2019-03-04T06:10:14.861Z,4.97
2019-03-04T06:11:20.110Z,5.23
2019-03-04T06:12:25.390Z,4.47
2019-03-04T06:13:30.806Z,3.80
2019-03-04T06:14:36.487Z,5.80
2019-03-04T06:15:41.738Z,1.57
2019-03-04T06:16:47.607Z,4.50
2019-03-04T06:17:54.047Z,7.50
2019-03-04T06:18:59.297Z,4.70
2019-03-04T06:20:06.172Z,3.23
2019-03-04T06:21:11.356Z,5.43
2019-03-04T06:22:16.680Z,6.47
2019-03-04T06:23:21.998Z,7.83
2019-03-04T06:24:27.273Z,5.87
2019-03-04T06:25:32.525Z,4.60
2019-03-04T06:26:37.757Z,4.70
2019-03-04T06:27:42.943Z,2.50
2019-03-04T06:28:48.214Z,5.27
2019-03-04T06:29:53.391Z,7.03
2019-03-04T06:30:58.505Z,4.33
2019-03-04T06:32:03.856Z,6.33
2019-03-04T06:33:09.086Z,2.83
2019-03-04T06:34:14.363Z,3.03
2019-03-04T06:35:19.683Z,2.20
2019-03-04T06:36:24.891Z,1.67
2019-03-04T06:37:30.171Z,2.93
2019-03-04T06:38:35.465Z,1.80
2019-03-04T06:39:40.613Z,2.03
2019-03-04T06:40:45.810Z,1.50
2019-03-04T06:41:51.085Z,2.20
2019-03-04T06:42:56.370Z,3.63
2019-03-04T06:44:01.613Z,1.07
2019-03-04T06:45:08.821Z,3.03
2019-03-04T06:46:14.572Z,1.20
2019-03-04T06:47:19.855Z,2.73
2019-03-04T06:48:25.132Z,3.77
2019-03-04T06:49:30.342Z,2.17
2019-03-04T06:50:52.324Z,1.07
2019-03-04T06:51:58.039Z,1.30
2019-03-04T06:53:03.342Z,4.87
2019-03-04T06:54:45.472Z,2.40
2019-03-04T06:56:18.784Z,1.63
2019-03-04T06:57:28.431Z,1.57
2019-03-04T06:58:34.010Z,0.97
2019-03-04T07:00:23.608Z,0.90
2019-03-04T07:01:40.379Z,1.00
2019-03-04T07:02:45.697Z,1.53
2019-03-04T07:03:59.787Z,1.70
2019-03-04T07:05:51.656Z,1.43
2019-03-04T07:06:56.936Z,3.03
2019-03-04T07:08:02.143Z,2.67
2019-03-04T07:09:16.116Z,3.80
2019-03-04T07:10:21.380Z,5.93
2019-03-04T07:11:26.578Z,1.73
2019-03-04T07:12:31.931Z,1.80
2019-03-04T07:13:37.044Z,1.00
2019-03-04T07:14:42.330Z,1.67
2019-03-04T07:15:47.490Z,2.03
2019-03-04T07:16:53.436Z,3.67
2019-03-04T07:17:58.726Z,3.17
2019-03-04T07:19:33.861Z,3.63
2019-03-04T07:20:39.072Z,2.33
2019-03-04T07:21:44.656Z,1.27
2019-03-04T07:22:49.942Z,4.23
2019-03-04T07:23:55.141Z,2.03
2019-03-04T07:25:00.375Z,4.57
2019-03-04T07:26:05.663Z,4.20
2019-03-04T07:27:11.055Z,1.07
2019-03-04T07:28:16.534Z,2.60
2019-03-04T07:29:21.706Z,2.50
2019-03-04T07:30:26.887Z,2.40
2019-03-04T07:31:32.429Z,1.93
2019-03-04T07:32:37.712Z,2.50
2019-03-04T07:33:43.003Z,2.80
2019-03-04T07:34:48.191Z,1.90
2019-03-04T07:35:53.502Z,3.30
2019-03-04T07:36:59.840Z,3.73
2019-03-04T07:38:29.213Z,3.23
2019-03-04T07:39:34.510Z,3.07
2019-03-04T07:40:39.754Z,1.70
2019-03-04T07:41:55.801Z,2.87
2019-03-04T07:43:01.159Z,2.20
2019-03-04T07:44:06.497Z,3.07
2019-03-04T07:45:12.349Z,6.07
2019-03-04T07:46:17.650Z,2.53
2019-03-04T07:47:22.895Z,3.87
2019-03-04T07:48:28.154Z,3.13
2019-03-04T07:49:33.542Z,6.27
2019-03-04T07:50:38.782Z,2.70
2019-03-04T07:51:44.041Z,4.90
2019-03-04T07:52:56.801Z,2.07
2019-03-04T07:54:02.128Z,2.63
2019-03-04T07:55:08.435Z,3.33
2019-03-04T07:56:13.901Z,3.13
2019-03-04T07:57:22.430Z,2.30
2019-03-04T07:58:27.759Z,7.20
2019-03-04T07:59:33.151Z,3.37
2019-03-04T08:00:38.501Z,2.73
2019-03-04T08:01:43.765Z,5.97
2019-03-04T08:02:49.050Z,7.70
2019-03-04T08:03:54.327Z,4.67
2019-03-04T08:04:59.577Z,4.10
2019-03-04T08:06:04.857Z,4.90
2019-03-04T08:07:38.678Z,4.00
2019-03-04T08:09:26.918Z,3.87
2019-03-04T08:11:04.001Z,9.03
2019-03-04T08:12:46.487Z,3.97
2019-03-04T08:13:55.901Z,6.97
2019-03-04T08:15:01.164Z,3.27
2019-03-04T08:16:07.178Z,2.53
2019-03-04T08:17:13.054Z,2.07
2019-03-04T08:18:18.251Z,7.80
2019-03-04T08:19:23.558Z,4.60
2019-03-04T08:20:28.872Z,4.37
2019-03-04T08:21:34.083Z,6.77
2019-03-04T08:22:39.350Z,4.43
2019-03-04T08:23:44.778Z,3.57
2019-03-04T08:24:50.172Z,5.17
2019-03-04T08:25:55.482Z,3.33
2019-03-04T08:27:00.771Z,6.90
2019-03-04T08:28:07.602Z,3.70
2019-03-04T08:29:12.883Z,6.77
2019-03-04T08:30:20.192Z,4.93
2019-03-04T08:31:25.414Z,2.17
2019-03-04T08:32:30.698Z,4.73
2019-03-04T08:33:36.953Z,3.30
2019-03-04T08:34:42.152Z,1.00
2019-03-04T08:35:47.506Z,3.17
2019-03-04T08:36:53.727Z,4.07
2019-03-04T08:37:59.188Z,2.00
2019-03-04T08:39:06.660Z,1.97
2019-03-04T08:40:13.675Z,4.47
2019-03-04T08:41:24.050Z,6.10
2019-03-04T08:42:29.632Z,3.60
2019-03-04T08:43:35.031Z,3.40
2019-03-04T08:44:41.535Z,1.60
2019-03-04T08:45:46.786Z,5.73
2019-03-04T08:46:52.052Z,1.60
2019-03-04T08:48:01.464Z,4.67
2019-03-04T08:49:06.710Z,3.47
2019-03-04T08:50:12.821Z,5.40
2019-03-04T08:51:18.146Z,1.77
2019-03-04T08:52:23.456Z,3.57
2019-03-04T08:53:31.016Z,3.87
2019-03-04T08:54:36.297Z,4.00
2019-03-04T08:55:41.441Z,4.03
2019-03-04T08:56:46.730Z,6.20
2019-03-04T08:57:52.190Z,4.40
2019-03-04T08:58:57.610Z,3.87
2019-03-04T09:00:02.857Z,3.40
2019-03-04T09:01:08.508Z,6.30
2019-03-04T09:02:13.934Z,3.53
2019-03-04T09:03:19.252Z,3.80
2019-03-04T09:04:24.565Z,5.47
2019-03-04T09:05:29.888Z,4.13
2019-03-04T09:06:35.487Z,3.40
2019-03-04T09:07:40.909Z,5.20
2019-03-04T09:08:46.388Z,3.43
2019-03-04T09:09:51.839Z,5.40
2019-03-04T09:10:57.223Z,4.20
2019-03-04T09:12:05.349Z,4.10
2019-03-04T09:13:10.704Z,4.80
2019-03-04T09:14:16.140Z,4.37
2019-03-04T09:15:21.651Z,3.60
2019-03-04T09:16:26.990Z,3.83
2019-03-04T09:17:37.974Z,5.93
2019-03-04T09:18:43.281Z,5.30
2019-03-04T09:19:48.457Z,4.97
2019-03-04T09:20:53.901Z,3.77
2019-03-04T09:21:59.055Z,7.30
2019-03-04T09:23:05.345Z,4.33
2019-03-04T09:24:10.674Z,3.73
2019-03-04T09:25:30.711Z,3.73
2019-03-04T09:26:35.012Z,6.40
2019-03-04T09:27:40.443Z,4.97
2019-03-04T09:28:45.749Z,3.87
2019-03-04T09:29:51.023Z,6.20
2019-03-04T09:30:56.410Z,7.30
2019-03-04T09:32:01.685Z,8.07
2019-03-04T09:33:07.027Z,6.87
2019-03-04T09:34:12.319Z,7.83
2019-03-04T09:35:17.588Z,9.83
2019-03-04T09:36:22.845Z,6.63
2019-03-04T09:37:28.155Z,6.87
2019-03-04T09:38:33.452Z,7.77
2019-03-04T09:39:39.798Z,7.50
2019-03-04T09:40:44.970Z,5.93
2019-03-04T09:41:52.650Z,5.23
2019-03-04T09:42:58.241Z,12.20
2019-03-04T09:44:03.632Z,10.87
2019-03-04T09:45:09.083Z,9.13
2019-03-04T09:46:14.519Z,7.50
2019-03-04T09:47:19.957Z,7.53
2019-03-04T09:48:25.255Z,7.93
2019-03-04T09:49:30.514Z,8.47
2019-03-04T09:50:35.759Z,8.57
2019-03-04T09:51:41.046Z,12.60
2019-03-04T09:52:46.348Z,7.33
2019-03-04T09:53:51.590Z,7.43
2019-03-04T09:54:56.888Z,7.10
2019-03-04T09:56:02.103Z,11.80
2019-03-04T09:57:07.353Z,9.60
2019-03-04T09:58:12.632Z,13.67
2019-03-04T09:59:17.876Z,18.50
2019-03-04T10:00:34.704Z,16.57
2019-03-04T10:01:54.092Z,11.03
2019-03-04T10:03:06.885Z,10.47
2019-03-04T10:04:58.443Z,9.83
2019-03-04T10:06:24.577Z,6.83
2019-03-04T10:07:41.052Z,9.80
2019-03-04T10:09:20.818Z,10.87
2019-03-04T10:11:08.050Z,10.53
2019-03-04T10:12:20.669Z,10.67
2019-03-04T10:14:22.373Z,10.10
2019-03-04T10:16:26.745Z,8.03
2019-03-04T10:17:40.017Z,10.40
2019-03-04T10:19:29.285Z,8.93
2019-03-04T10:21:14.742Z,6.97
2019-03-04T10:23:04.531Z,9.50
2019-03-04T10:24:43.573Z,6.07
2019-03-04T10:26:22.715Z,6.07
2019-03-04T10:28:06.253Z,6.03
2019-03-04T10:29:57.157Z,9.53
2019-03-04T10:31:43.412Z,8.47
2019-03-04T10:33:23.771Z,5.13
2019-03-04T10:35:11.804Z,10.97
2019-03-04T10:36:58.705Z,5.23
2019-03-04T10:39:00.148Z,3.93
2019-03-04T10:41:01.376Z,7.60
2019-03-04T10:42:49.296Z,7.63
2019-03-04T10:44:27.294Z,9.27
2019-03-04T10:46:01.548Z,8.27
2019-03-04T10:47:06.939Z,6.93
2019-03-04T10:48:13.333Z,4.47
2019-03-04T10:49:19.720Z,4.80
2019-03-04T10:50:24.909Z,4.40
2019-03-04T10:51:30.270Z,9.53
2019-03-04T10:52:35.808Z,12.27
2019-03-04T10:53:41.189Z,7.47
2019-03-04T10:54:46.511Z,8.20
2019-03-04T10:55:51.784Z,5.03
2019-03-04T10:56:56.999Z,6.37
2019-03-04T10:58:02.297Z,6.80
2019-03-04T10:59:07.663Z,6.27
2019-03-04T11:00:16.281Z,7.60
2019-03-04T11:01:30.083Z,5.80
2019-03-04T11:02:28.394Z,4.73
2019-03-04T11:03:33.694Z,6.63
2019-03-04T11:04:38.971Z,11.77
2019-03-04T11:05:44.825Z,8.77
2019-03-04T11:06:50.057Z,7.37
2019-03-04T11:07:55.307Z,5.30
2019-03-04T11:09:01.801Z,9.17
2019-03-04T11:10:09.418Z,8.27
2019-03-04T11:11:14.866Z,6.30
2019-03-04T11:12:19.994Z,7.23
2019-03-04T11:13:25.371Z,11.77
2019-03-04T11:14:30.674Z,9.77
2019-03-04T11:15:35.994Z,7.47
2019-03-04T11:16:41.290Z,4.10
2019-03-04T11:17:46.630Z,3.60
2019-03-04T11:18:51.940Z,1.57
2019-03-04T11:19:57.306Z,2.20
2019-03-04T11:21:02.594Z,2.07
2019-03-04T11:22:08.483Z,1.47
2019-03-04T11:23:15.118Z,1.53
2019-03-04T11:24:20.720Z,2.40
2019-03-04T11:25:26.003Z,2.10
2019-03-04T11:26:31.286Z,2.27
2019-03-04T11:27:36.679Z,5.37
2019-03-04T11:28:42.093Z,2.67
2019-03-04T11:29:47.399Z,0.90
2019-03-04T11:30:52.811Z,2.90
2019-03-04T11:31:58.188Z,1.93
2019-03-04T11:33:03.630Z,2.30
2019-03-04T11:34:08.955Z,0.70
2019-03-04T11:35:14.406Z,1.00
2019-03-04T11:36:19.676Z,2.27
2019-03-04T11:37:24.936Z,3.07
2019-03-04T11:38:41.305Z,0.90
2019-03-04T11:40:06.541Z,1.70
2019-03-04T11:41:14.644Z,1.27
2019-03-04T11:42:19.860Z,3.37
2019-03-04T11:43:25.059Z,1.50
2019-03-04T11:44:30.323Z,4.23
2019-03-04T11:45:37.991Z,0.90
2019-03-04T11:46:43.236Z,1.13
2019-03-04T11:47:48.487Z,1.17
2019-03-04T11:48:53.690Z,1.20
2019-03-04T11:49:58.976Z,0.87
2019-03-04T11:51:04.655Z,3.23
2019-03-04T11:52:11.050Z,1.33
2019-03-04T11:53:16.418Z,1.27
2019-03-04T11:54:22.844Z,2.10
2019-03-04T11:55:28.664Z,0.70
2019-03-04T11:56:34.987Z,1.20
2019-03-04T11:57:40.327Z,0.90
2019-03-04T11:58:45.594Z,1.67
2019-03-04T11:59:50.959Z,1.57
2019-03-04T12:01:07.828Z,1.03
2019-03-04T12:02:18.517Z,1.93
2019-03-04T12:03:23.807Z,1.97
2019-03-04T12:04:29.122Z,1.27
2019-03-04T12:05:34.608Z,2.80
2019-03-04T12:06:39.871Z,1.93
2019-03-04T12:07:45.152Z,1.50
2019-03-04T12:08:50.410Z,2.53
2019-03-04T12:09:55.692Z,1.23
2019-03-04T12:11:00.983Z,2.77
2019-03-04T12:12:06.487Z,1.23
2019-03-04T12:13:11.746Z,1.23
2019-03-04T12:14:17.307Z,1.33
2019-03-04T12:15:22.820Z,2.43
2019-03-04T12:16:28.131Z,1.23
2019-03-04T12:17:33.378Z,3.43
2019-03-04T12:18:38.655Z,2.67
2019-03-04T12:19:43.970Z,2.63
2019-03-04T12:20:49.214Z,2.27
2019-03-04T12:21:54.415Z,1.07
2019-03-04T12:22:59.684Z,1.63
2019-03-04T12:24:05.019Z,2.60
2019-03-04T12:25:12.688Z,3.83
2019-03-04T12:26:18.674Z,1.37
2019-03-04T12:27:24.051Z,1.10
2019-03-04T12:28:29.489Z,2.57
2019-03-04T12:29:34.758Z,1.57
2019-03-04T12:30:40.033Z,2.10
2019-03-04T12:31:55.582Z,2.43
2019-03-04T12:33:00.847Z,2.47
2019-03-04T12:34:06.279Z,1.57
2019-03-04T12:35:13.168Z,1.70
2019-03-04T12:36:18.423Z,2.53
2019-03-04T12:37:23.764Z,1.60
2019-03-04T12:38:29.158Z,4.50
2019-03-04T12:39:34.390Z,1.87
2019-03-04T12:40:39.692Z,3.30
2019-03-04T12:41:46.130Z,3.57
2019-03-04T12:42:51.533Z,4.07
2019-03-04T12:43:56.810Z,2.30
2019-03-04T12:45:02.165Z,4.40
2019-03-04T12:46:07.564Z,1.70
2019-03-04T12:47:12.754Z,2.97
2019-03-04T12:48:18.394Z,3.10
2019-03-04T12:49:23.714Z,2.50
2019-03-04T12:50:30.040Z,2.80
2019-03-04T12:51:35.330Z,3.70
2019-03-04T12:52:40.554Z,3.00
2019-03-04T12:53:45.778Z,3.63
2019-03-04T12:54:51.002Z,2.90
2019-03-04T12:55:56.256Z,2.23
2019-03-04T12:57:01.498Z,2.40
2019-03-04T12:58:06.847Z,3.47
2019-03-04T12:59:12.159Z,3.73
2019-03-04T13:00:19.962Z,4.93
2019-03-04T13:01:25.226Z,3.37
2019-03-04T13:02:30.556Z,3.60
2019-03-04T13:03:35.808Z,5.10
2019-03-04T13:04:41.037Z,2.63
2019-03-04T13:05:46.330Z,4.27
2019-03-04T13:06:51.720Z,3.50
2019-03-04T13:07:57.010Z,3.17
2019-03-04T13:09:02.261Z,5.80
2019-03-04T13:10:09.521Z,4.50
2019-03-04T13:11:14.882Z,2.60
2019-03-04T13:12:20.173Z,3.90
2019-03-04T13:13:25.457Z,7.17
2019-03-04T13:14:30.723Z,2.60
2019-03-04T13:15:36.048Z,4.93
2019-03-04T13:16:42.382Z,4.13
2019-03-04T13:17:47.655Z,7.43
2019-03-04T13:18:53.127Z,4.00
2019-03-04T13:19:58.574Z,4.60
2019-03-04T13:21:03.848Z,4.57
2019-03-04T13:22:09.343Z,3.27
2019-03-04T13:23:14.626Z,5.33
2019-03-04T13:24:19.872Z,6.23
2019-03-04T13:25:25.050Z,4.63
2019-03-04T13:26:30.299Z,6.30
2019-03-04T13:27:35.636Z,5.03
2019-03-04T13:28:40.921Z,5.67
2019-03-04T13:29:46.204Z,8.40
2019-03-04T13:30:51.558Z,4.83
2019-03-04T13:31:56.871Z,5.27
2019-03-04T13:33:02.197Z,6.30
2019-03-04T13:34:07.384Z,7.00
2019-03-04T13:35:23.760Z,4.07
2019-03-04T13:36:21.067Z,7.63
2019-03-04T13:37:26.378Z,5.00
2019-03-04T13:38:31.699Z,11.20
2019-03-04T13:39:36.882Z,7.17
2019-03-04T13:40:43.551Z,7.13
2019-03-04T13:41:48.868Z,5.50
2019-03-04T13:42:54.154Z,8.10
2019-03-04T13:44:00.976Z,8.97
2019-03-04T13:45:07.808Z,10.03
2019-03-04T13:46:14.435Z,4.50
2019-03-04T13:47:19.724Z,5.53
2019-03-04T13:48:25.074Z,5.00
2019-03-04T13:49:30.422Z,9.70
2019-03-04T13:50:36.100Z,5.37
2019-03-04T13:51:41.424Z,8.23
2019-03-04T13:52:46.685Z,5.73
2019-03-04T13:53:51.937Z,9.73
2019-03-04T13:54:57.139Z,6.37
2019-03-04T13:56:02.394Z,9.70
2019-03-04T13:57:07.677Z,7.10
2019-03-04T13:58:15.473Z,4.70
2019-03-04T13:59:20.636Z,8.10
2019-03-04T14:00:25.921Z,7.07
2019-03-04T14:01:31.220Z,8.63
2019-03-04T14:02:36.578Z,8.63
2019-03-04T14:03:41.738Z,10.40
2019-03-04T14:04:47.530Z,10.50
2019-03-04T14:05:52.806Z,5.03
2019-03-04T14:07:04.539Z,6.83
2019-03-04T14:08:11.947Z,9.13
2019-03-04T14:09:20.411Z,11.87
2019-03-04T14:10:25.735Z,10.20
2019-03-04T14:11:31.000Z,7.33
2019-03-04T14:12:36.330Z,6.00
2019-03-04T14:13:41.651Z,8.97
2019-03-04T14:14:46.889Z,6.37
2019-03-04T14:15:52.114Z,11.63
2019-03-04T14:16:57.376Z,5.87
2019-03-04T14:18:02.693Z,8.33
2019-03-04T14:19:07.937Z,9.93
2019-03-04T14:20:13.324Z,7.07
2019-03-04T14:21:18.744Z,10.03
2019-03-04T14:22:24.021Z,6.17
2019-03-04T14:23:29.302Z,9.40
2019-03-04T14:24:34.545Z,8.37
2019-03-04T14:25:39.756Z,10.40
2019-03-04T14:26:45.120Z,11.87
2019-03-04T14:27:50.356Z,8.57
2019-03-04T14:28:55.761Z,8.13
2019-03-04T14:30:01.064Z,9.00
2019-03-04T14:31:07.543Z,11.87
2019-03-04T14:32:12.898Z,8.53
2019-03-04T14:33:18.170Z,11.07
2019-03-04T14:34:23.336Z,9.67
2019-03-04T14:35:28.698Z,12.27
2019-03-04T14:36:33.972Z,8.60
2019-03-04T14:37:40.326Z,10.70
2019-03-04T14:38:45.604Z,7.03
2019-03-04T14:39:50.806Z,13.03
2019-03-04T14:40:56.000Z,9.87
2019-03-04T14:42:01.254Z,8.07
2019-03-04T14:43:06.654Z,7.60
2019-03-04T14:44:11.835Z,16.97
2019-03-04T14:45:18.446Z,7.23
2019-03-04T14:46:25.497Z,6.47
2019-03-04T14:47:30.711Z,7.87
2019-03-04T14:48:35.900Z,9.77
2019-03-04T14:49:44.871Z,12.67
2019-03-04T14:50:48.060Z,6.70
2019-03-04T14:51:53.298Z,8.87
2019-03-04T14:52:58.556Z,9.47
2019-03-04T14:54:03.836Z,13.47
2019-03-04T14:55:11.496Z,10.47
2019-03-04T14:56:22.318Z,9.07